createdAt,value
2019-01-17T00:00:17.591Z,-1.3
2019-01-17T00:05:16.400Z,-1.3
2019-01-17T00:10:15.207Z,-0.8
2019-01-17T00:15:14.079Z,-1.3
2019-01-17T00:20:13.144Z,-0.9
2019-01-17T00:25:12.016Z,-0.9
2019-01-17T00:30:11.109Z,-0.9
2019-01-17T00:35:10.011Z,-1.4
2019-01-17T00:40:08.999Z,-1.4
2019-01-17T00:45:07.968Z,-0.9
2019-01-17T00:50:06.991Z,-1.4
2019-01-17T00:55:05.840Z,-1
2019-01-17T01:00:04.690Z,-1
2019-01-17T01:05:03.619Z,-1
2019-01-17T01:10:02.565Z,-1
2019-01-17T01:15:01.493Z,-1.1
2019-01-17T01:20:00.524Z,-1.1
2019-01-17T01:24:59.434Z,-1.1
2019-01-17T01:29:58.462Z,-1.5
2019-01-17T01:34:57.478Z,-1.1
2019-01-17T01:39:56.144Z,-1.2
2019-01-17T01:44:54.924Z,-1.6
2019-01-17T01:49:53.901Z,-1.6
2019-01-17T01:54:52.995Z,-1.2
2019-01-17T01:59:52.011Z,-1.3
2019-01-17T02:04:50.983Z,-1.3
2019-01-17T02:09:49.932Z,-1.3
2019-01-17T02:14:48.934Z,-1.3
2019-01-17T02:19:47.770Z,-1.5
2019-01-17T02:24:46.737Z,-1.4
2019-01-17T02:29:45.028Z,-1.8
2019-01-17T02:34:43.904Z,-1.4
2019-01-17T02:39:42.830Z,-1.9
2019-01-17T02:44:41.717Z,-2
2019-01-17T02:49:40.443Z,-1.5
2019-01-17T02:54:39.417Z,-2
2019-01-17T02:59:38.463Z,-1.5
2019-01-17T03:04:37.473Z,-1.5
2019-01-17T03:09:36.285Z,-2
2019-01-17T03:14:35.247Z,-1.6
2019-01-17T03:19:34.255Z,-1.6
2019-01-17T03:24:33.056Z,-1.6
2019-01-17T03:29:32.135Z,-1.6
2019-01-17T03:34:31.125Z,-1.6
2019-01-17T03:39:30.093Z,-1.7
2019-01-17T03:44:29.122Z,-1.7
2019-01-17T03:49:28.315Z,-2.2
2019-01-17T03:54:27.225Z,-1.7
2019-01-17T03:59:26.137Z,-1.8
2019-01-17T04:04:24.938Z,-1.8
2019-01-17T04:09:23.899Z,-2.3
2019-01-17T04:14:22.923Z,-2.8
2019-01-17T04:19:21.834Z,-1.9
2019-01-17T04:24:20.122Z,-1.9
2019-01-17T04:29:19.121Z,-1.9
2019-01-17T04:34:18.217Z,-1.9
2019-01-17T04:39:17.070Z,-2
2019-01-17T04:44:16.032Z,-2
2019-01-17T04:49:14.938Z,-2
2019-01-17T04:54:13.981Z,-2
2019-01-17T04:59:13.198Z,-2
2019-01-17T05:04:11.559Z,-2.1
2019-01-17T05:09:10.653Z,-2.6
2019-01-17T05:14:09.684Z,-2.1
2019-01-17T05:19:08.787Z,-2.6
2019-01-17T05:24:07.909Z,-2.2
2019-01-17T05:29:06.394Z,-2.2
2019-01-17T05:34:05.179Z,-2.7
2019-01-17T05:39:04.188Z,-2.2
2019-01-17T05:44:03.051Z,-2.3
2019-01-17T05:49:01.906Z,-2.3
2019-01-17T05:54:01.021Z,-2.3
2019-01-17T05:59:00.024Z,-2.3
2019-01-17T06:03:59.236Z,-2.4
2019-01-17T06:08:58.077Z,-2.4
2019-01-17T06:13:57.100Z,-2.4
2019-01-17T06:18:56.302Z,-2.4
2019-01-17T06:23:55.076Z,-2.5
2019-01-17T06:28:54.104Z,-3
2019-01-17T06:33:53.116Z,-3
2019-01-17T06:38:52.234Z,-3
2019-01-17T06:43:51.209Z,-2.6
2019-01-17T06:48:50.297Z,-2.6
2019-01-17T06:53:49.269Z,-2.6
2019-01-17T06:58:48.326Z,-2.7
2019-01-17T07:03:47.374Z,-2.7
2019-01-17T07:08:46.322Z,-2.7
2019-01-17T07:13:45.690Z,-2.7
2019-01-17T07:18:44.063Z,-2.7
2019-01-17T07:23:42.916Z,-3.5
2019-01-17T07:28:41.750Z,-2.8
2019-01-17T07:33:40.538Z,-2.8
2019-01-17T07:38:39.365Z,-2.8
2019-01-17T07:43:38.309Z,-2.8
2019-01-17T07:48:37.446Z,-2.9
2019-01-17T07:53:36.418Z,-2.9
2019-01-17T07:58:35.470Z,-2.9
2019-01-17T08:03:34.385Z,-2.9
2019-01-17T08:08:33.479Z,-2.9
2019-01-17T08:13:32.187Z,-2.9
2019-01-17T08:18:31.202Z,-3
2019-01-17T08:23:34.490Z,-3
2019-01-17T08:28:32.724Z,-3
2019-01-17T08:33:31.694Z,-3
2019-01-17T08:38:30.770Z,-3
2019-01-17T08:43:29.654Z,-3
2019-01-17T08:48:28.664Z,-3
2019-01-17T08:53:27.842Z,-3.9
2019-01-17T08:58:27.062Z,-3.7
2019-01-17T09:03:25.907Z,-3
2019-01-17T09:08:24.906Z,-3
2019-01-17T09:13:23.836Z,-3
2019-01-17T09:18:23.098Z,-3.9
2019-01-17T09:23:22.170Z,-3.1
2019-01-17T09:28:21.156Z,-2.9
2019-01-17T09:33:20.242Z,-2.9
2019-01-17T09:38:19.229Z,-2.9
2019-01-17T09:43:18.167Z,-2.9
2019-01-17T09:48:17.208Z,-2.9
2019-01-17T09:53:16.350Z,-2.9
2019-01-17T09:58:15.512Z,-2.9
2019-01-17T10:03:14.138Z,-2.9
2019-01-17T10:08:13.287Z,-3.6
2019-01-17T10:13:12.289Z,-2.8
2019-01-17T10:18:11.398Z,-2.8
2019-01-17T10:23:10.454Z,-2.8
2019-01-17T10:28:08.990Z,-2.8
2019-01-17T10:33:07.949Z,-2.8
2019-01-17T10:38:06.899Z,-2.7
2019-01-17T10:43:05.930Z,-2.7
2019-01-17T10:48:04.936Z,-2.7
2019-01-17T10:53:03.436Z,-2.7
2019-01-17T10:58:02.734Z,-3.3
2019-01-17T11:03:01.698Z,-2.6
2019-01-17T11:08:00.834Z,-2.7
2019-01-17T11:12:59.876Z,-2.5
2019-01-17T11:17:58.866Z,-2.5
2019-01-17T11:22:57.915Z,-2.9
2019-01-17T11:27:56.834Z,-2.4
2019-01-17T11:32:55.971Z,-2.4
2019-01-17T11:37:55.061Z,-2.4
2019-01-17T11:42:53.823Z,-3
2019-01-17T11:47:52.903Z,-2.3
2019-01-17T11:52:52.080Z,-2.2
2019-01-17T11:57:51.161Z,-2.7
2019-01-17T12:02:49.853Z,-2.2
2019-01-17T12:07:48.972Z,-2.1
2019-01-17T12:12:47.907Z,-2.5
2019-01-17T12:17:47.127Z,-2
2019-01-17T12:22:46.232Z,-2
2019-01-17T12:27:45.450Z,-1.9
2019-01-17T12:32:44.317Z,-1.9
2019-01-17T12:37:43.480Z,-2
2019-01-17T12:42:42.533Z,-1.8
2019-01-17T12:47:41.823Z,-1.7
2019-01-17T12:52:40.887Z,-1.6
2019-01-17T12:57:39.841Z,-1.6
2019-01-17T13:02:39.050Z,-1.5
2019-01-17T13:07:38.153Z,-1.5
2019-01-17T13:12:37.095Z,-1.4
2019-01-17T13:17:36.088Z,-1.3
2019-01-17T13:22:35.202Z,-1.3
2019-01-17T13:27:34.408Z,-2.1
2019-01-17T13:32:33.380Z,-1.2
2019-01-17T13:37:32.514Z,-1.1
2019-01-17T13:42:31.633Z,-1.1
2019-01-17T13:47:30.732Z,-1
2019-01-17T13:52:29.610Z,-0.9
2019-01-17T13:57:28.047Z,-0.9
2019-01-17T14:02:27.206Z,-0.8
2019-01-17T14:07:26.623Z,-0.8
2019-01-17T14:12:25.074Z,-0.7
2019-01-17T14:17:23.940Z,-0.7
2019-01-17T14:22:22.845Z,-0.6
2019-01-17T14:27:21.836Z,-0.6
2019-01-17T14:32:20.797Z,-0.5
2019-01-17T14:37:19.838Z,-0.5
2019-01-17T14:42:18.931Z,-1
2019-01-17T14:47:18.212Z,-0.4
2019-01-17T14:52:17.198Z,-0.3
2019-01-17T14:57:20.543Z,-0.3
2019-01-17T15:02:18.863Z,-0.2
2019-01-17T15:07:17.890Z,-0.2
2019-01-17T15:12:16.982Z,-0.2
2019-01-17T15:17:15.793Z,-0.2
2019-01-17T15:22:14.803Z,-0.1
2019-01-17T15:27:13.926Z,-0.5
2019-01-17T15:32:13.242Z,-0.6
2019-01-17T15:37:11.601Z,-0.1
2019-01-17T15:42:10.758Z,0
2019-01-17T15:47:13.099Z,0
2019-01-17T15:52:11.694Z,0
2019-01-17T15:57:10.318Z,0
2019-01-17T16:02:09.355Z,0
2019-01-17T16:07:08.023Z,0
2019-01-17T16:12:06.569Z,0
2019-01-17T16:17:05.397Z,0
2019-01-17T16:22:04.276Z,0
2019-01-17T16:27:03.334Z,0.1
2019-01-17T16:32:02.380Z,0.1
2019-01-17T16:37:01.543Z,0.1
2019-01-17T16:42:00.606Z,0.1
2019-01-17T16:46:59.506Z,0.1
2019-01-17T16:51:58.714Z,0.1
2019-01-17T16:56:57.913Z,0.1
2019-01-17T17:01:57.035Z,0
2019-01-17T17:06:56.029Z,0
2019-01-17T17:11:55.043Z,0
2019-01-17T17:16:54.082Z,0
2019-01-17T17:21:53.361Z,0
2019-01-17T17:26:52.687Z,0
2019-01-17T17:31:51.716Z,0
2019-01-17T17:36:50.738Z,0
2019-01-17T17:41:49.403Z,0
2019-01-17T17:46:48.480Z,0
2019-01-17T17:51:47.529Z,-0.1
2019-01-17T17:56:46.231Z,-0.5
2019-01-17T18:01:45.218Z,-0.1
2019-01-17T18:06:44.404Z,-1
2019-01-17T18:11:43.431Z,-0.1
2019-01-17T18:16:42.531Z,-0.3
2019-01-17T18:21:41.214Z,-0.6
2019-01-17T18:26:40.257Z,-0.1
2019-01-17T18:31:39.287Z,-0.6
2019-01-17T18:36:38.355Z,-0.2
2019-01-17T18:41:37.468Z,-0.2
2019-01-17T18:46:36.620Z,-0.2
2019-01-17T18:51:35.644Z,-0.2
2019-01-17T18:56:34.649Z,-0.2
2019-01-17T19:01:33.512Z,-0.2
2019-01-17T19:06:32.512Z,-0.3
2019-01-17T19:11:31.542Z,-0.3
2019-01-17T19:16:30.450Z,-0.3
2019-01-17T19:21:28.878Z,-0.3
2019-01-17T19:26:27.928Z,-0.3
2019-01-17T19:31:26.868Z,-0.3
2019-01-17T19:36:25.916Z,-0.4
2019-01-17T19:41:24.960Z,-0.4
2019-01-17T19:46:23.859Z,-0.4
2019-01-17T19:51:22.969Z,-0.9
2019-01-17T19:56:22.020Z,-0.9
2019-01-17T20:01:20.913Z,-0.4
2019-01-17T20:06:20.029Z,-0.6
2019-01-17T20:11:19.007Z,-0.6
2019-01-17T20:16:18.005Z,-0.5
2019-01-17T20:21:17.153Z,-0.5
2019-01-17T20:26:16.241Z,-0.5
2019-01-17T20:31:15.087Z,-0.5
2019-01-17T20:36:13.766Z,-0.6
2019-01-17T20:41:12.766Z,-0.6
2019-01-17T20:46:11.770Z,-0.6
2019-01-17T20:51:10.812Z,-0.6
2019-01-17T20:56:09.852Z,-0.6
2019-01-17T21:01:08.384Z,-0.6
2019-01-17T21:06:07.479Z,-0.7
2019-01-17T21:11:06.341Z,-0.7
2019-01-17T21:16:05.472Z,-0.7
2019-01-17T21:21:04.408Z,-0.7
2019-01-17T21:26:03.419Z,-0.7
2019-01-17T21:31:02.495Z,-0.8
2019-01-17T21:36:01.579Z,-1.2
2019-01-17T21:41:00.190Z,-0.8
2019-01-17T21:45:59.024Z,-0.8
2019-01-17T21:50:57.954Z,-0.8
2019-01-17T21:55:56.934Z,-1.3
2019-01-17T22:00:55.943Z,-0.9
2019-01-17T22:05:54.616Z,-1.4
2019-01-17T22:10:53.662Z,-0.9
2019-01-17T22:15:52.680Z,-1.4
2019-01-17T22:20:51.702Z,-0.9
2019-01-17T22:25:50.856Z,-1.6
2019-01-17T22:30:49.111Z,-1
2019-01-17T22:35:47.691Z,-1
2019-01-17T22:40:46.739Z,-1
2019-01-17T22:45:45.804Z,-1
2019-01-17T22:50:44.838Z,-1.1
2019-01-17T22:55:43.417Z,-1.1
2019-01-17T23:00:42.391Z,-1.1
2019-01-17T23:05:41.427Z,-1.1
2019-01-17T23:10:40.368Z,-1.1
2019-01-17T23:15:39.195Z,-1.1
2019-01-17T23:20:38.308Z,-1.2
2019-01-17T23:25:37.372Z,-1.2
2019-01-17T23:30:36.292Z,-1.2
2019-01-17T23:35:35.361Z,-1.2
2019-01-17T23:40:34.343Z,-1.3
2019-01-17T23:45:33.328Z,-1.3
2019-01-17T23:50:32.286Z,-1.3
2019-01-17T23:55:30.613Z,-1.3
